Time,TemperatureF,DewpointF,PressureIn,WindDirection,WindDirectionDegrees,WindSpeedMPH,WindSpeedGustMPH,Humidity,HourlyPrecipIn,Conditions,Clouds,dailyrainin,SoftwareType,DateUTC
2013-02-26 00:00:00,42.3,32.5,30.00,NW,325,0.0,0.0,68,0.00,,SKC,0.00,VWS V14.01,2013-02-26 08:00:00,
2013-02-26 00:02:00,42.1,32.3,30.00,NW,325,0.0,0.0,68,0.00,,SKC,0.00,VWS V14.01,2013-02-26 08:02:00,
2013-02-26 00:07:00,41.8,32.0,30.00,NW,325,0.0,0.0,68,0.00,,SKC,0.00,VWS V14.01,2013-02-26 08:07:00,
2013-02-26 00:10:00,41.7,31.9,30.00,NW,325,0.0,0.0,68,0.00,,SKC,0.00,VWS V14.01,2013-02-26 08:10:00,
2013-02-26 00:12:00,41.5,32.1,30.00,NW,325,0.0,0.0,69,0.00,,SKC,0.00,VWS V14.01,2013-02-26 08:12:00,
2013-02-26 00:17:00,41.3,32.3,30.00,NW,325,0.0,0.0,70,0.00,,SKC,0.00,VWS V14.01,2013-02-26 08:17:00,
2013-02-26 00:20:00,41.1,32.1,30.00,NW,325,0.0,0.0,70,0.00,,SKC,0.00,VWS V14.01,2013-02-26 08:20:00,
2013-02-26 00:22:00,40.9,31.9,30.00,NW,325,0.0,0.0,70,0.00,,SKC,0.00,VWS V14.01,2013-02-26 08:22:00,
2013-02-26 00:27:00,40.6,32.3,30.00,NW,325,0.0,0.0,72,0.00,,SKC,0.00,VWS V14.01,2013-02-26 08:27:00,
2013-02-26 00:30:00,40.5,32.2,30.00,NW,325,0.0,0.0,72,0.00,,SKC,0.00,VWS V14.01,2013-02-26 08:30:00,
2013-02-26 00:32:00,40.5,32.5,30.00,NW,325,0.0,0.0,73,0.00,,SKC,0.00,VWS V14.01,2013-02-26 08:32:00,
2013-02-26 00:37:00,40.3,32.0,30.00,NW,325,0.0,0.0,72,0.00,,SKC,0.00,VWS V14.01,2013-02-26 08:37:00,
2013-02-26 00:40:00,40.2,31.9,30.00,NW,325,0.0,0.0,72,0.00,,SKC,0.00,VWS V14.01,2013-02-26 08:40:00,
2013-02-26 00:42:00,40.1,31.5,30.00,NW,325,0.0,0.0,71,0.00,,SKC,0.00,VWS V14.01,2013-02-26 08:42:00,
2013-02-26 00:47:00,40.1,31.5,30.00,NW,325,0.0,0.0,71,0.00,,SKC,0.00,VWS V14.01,2013-02-26 08:47:00,
2013-02-26 00:50:00,40.1,31.8,30.00,NW,325,0.0,0.0,72,0.00,,SKC,0.00,VWS V14.01,2013-02-26 08:50:00,
2013-02-26 00:52:00,40.3,31.7,30.00,NW,325,0.0,0.0,71,0.00,,SKC,0.00,VWS V14.01,2013-02-26 08:52:00,
2013-02-26 00:57:00,40.6,32.0,30.00,NW,325,1.0,1.0,71,0.00,,SKC,0.00,VWS V14.01,2013-02-26 08:57:00,
2013-02-26 01:00:00,40.8,32.1,29.99,NW,325,0.0,2.0,71,0.00,,SKC,0.00,VWS V14.01,2013-02-26 09:00:00,
2013-02-26 01:02:00,41.0,32.0,29.99,NW,325,0.0,0.0,70,0.00,,SKC,0.00,VWS V14.01,2013-02-26 09:02:00,
2013-02-26 01:07:00,41.5,32.5,29.99,NW,325,0.0,2.0,70,0.00,,SKC,0.00,VWS V14.01,2013-02-26 09:07:00,
2013-02-26 01:10:00,41.6,32.6,29.99,NW,325,0.0,2.0,70,0.00,,SKC,0.00,VWS V14.01,2013-02-26 09:10:00,
2013-02-26 01:12:00,41.8,32.4,29.99,NW,325,0.0,1.0,69,0.00,,SKC,0.00,VWS V14.01,2013-02-26 09:12:00,
2013-02-26 01:17:00,42.4,33.3,29.99,NW,325,1.0,3.0,70,0.00,,SKC,0.00,VWS V14.01,2013-02-26 09:17:00,
2013-02-26 01:20:00,42.6,33.2,29.99,NW,325,0.0,3.0,69,0.00,,SKC,0.00,VWS V14.01,2013-02-26 09:20:00,
2013-02-26 01:22:00,42.8,33.3,29.99,NW,325,2.0,2.0,69,0.00,,SKC,0.00,VWS V14.01,2013-02-26 09:22:00,
2013-02-26 01:27:00,43.1,33.6,29.99,NW,325,0.0,3.0,69,0.00,,SKC,0.00,VWS V14.01,2013-02-26 09:27:00,
2013-02-26 01:30:00,43.2,33.7,30.00,NW,325,0.0,3.0,69,0.00,,SKC,0.00,VWS V14.01,2013-02-26 09:30:00,
2013-02-26 01:32:00,43.3,33.5,30.00,NW,325,0.0,2.0,68,0.00,,SKC,0.00,VWS V14.01,2013-02-26 09:32:00,
2013-02-26 01:37:00,43.4,33.6,30.00,NW,325,0.0,3.0,68,0.00,,SKC,0.00,VWS V14.01,2013-02-26 09:37:00,
2013-02-26 01:40:00,43.5,33.3,30.00,NW,325,2.0,3.0,67,0.00,,SKC,0.00,VWS V14.01,2013-02-26 09:40:00,
2013-02-26 01:42:00,43.5,33.3,30.00,NW,325,1.0,2.0,67,0.00,,SKC,0.00,VWS V14.01,2013-02-26 09:42:00,
2013-02-26 01:47:00,43.5,33.3,30.00,NW,321,0.0,6.0,67,0.00,,SKC,0.00,VWS V14.01,2013-02-26 09:47:00,
2013-02-26 01:50:00,43.5,33.3,30.00,NW,321,2.0,6.0,67,0.00,,SKC,0.00,VWS V14.01,2013-02-26 09:50:00,
2013-02-26 01:52:00,43.4,33.6,30.00,NW,321,2.0,4.0,68,0.00,,SKC,0.00,VWS V14.01,2013-02-26 09:52:00,
2013-02-26 01:57:00,43.2,33.7,30.00,NW,321,0.0,4.0,69,0.00,,SKC,0.00,VWS V14.01,2013-02-26 09:57:00,
2013-02-26 02:00:00,43.2,34.1,30.00,NW,321,0.0,4.0,70,0.00,,SKC,0.00,VWS V14.01,2013-02-26 10:00:00,
2013-02-26 02:02:00,42.9,33.4,30.00,NW,321,0.0,0.0,69,0.00,,SKC,0.00,VWS V14.01,2013-02-26 10:02:00,
2013-02-26 02:07:00,42.3,32.5,30.00,NW,321,0.0,0.0,68,0.00,,SKC,0.00,VWS V14.01,2013-02-26 10:07:00,
2013-02-26 02:10:00,42.1,32.0,30.00,NW,321,0.0,0.0,67,0.00,,SKC,0.00,VWS V14.01,2013-02-26 10:10:00,
2013-02-26 02:12:00,41.4,31.6,30.00,NW,321,0.0,0.0,68,0.00,,SKC,0.00,VWS V14.01,2013-02-26 10:12:00,
2013-02-26 02:17:00,40.7,31.3,29.99,NW,321,0.0,0.0,69,0.00,,SKC,0.00,VWS V14.01,2013-02-26 10:17:00,
2013-02-26 02:20:00,37.4,32.1,29.99,NW,321,0.0,1.0,81,0.00,,BKN110,0.00,VWS V14.01,2013-02-26 10:20:00,
2013-02-26 02:22:00,40.1,31.5,29.99,NW,321,0.0,0.0,71,0.00,,SKC,0.00,VWS V14.01,2013-02-26 10:22:00,
2013-02-26 02:27:00,39.5,31.6,29.99,NW,321,0.0,0.0,73,0.00,,SKC,0.00,VWS V14.01,2013-02-26 10:27:00,
2013-02-26 02:30:00,39.4,31.5,30.00,NW,321,0.0,0.0,73,0.00,,SKC,0.00,VWS V14.01,2013-02-26 10:30:00,
2013-02-26 02:32:00,39.0,31.4,30.00,NW,321,0.0,0.0,74,0.00,,SKC,0.00,VWS V14.01,2013-02-26 10:32:00,
2013-02-26 02:38:00,38.6,31.0,30.00,NW,321,0.0,0.0,74,0.00,,SKC,0.00,VWS V14.01,2013-02-26 10:38:00,
2013-02-26 02:40:00,38.6,31.0,30.00,NW,321,0.0,0.0,74,0.00,,SKC,0.00,VWS V14.01,2013-02-26 10:40:00,
2013-02-26 02:43:00,38.4,31.8,30.00,NW,321,0.0,0.0,77,0.00,,SKC,0.00,VWS V14.01,2013-02-26 10:43:00,
2013-02-26 02:48:00,38.2,31.3,30.00,NW,321,0.0,0.0,76,0.00,,SKC,0.00,VWS V14.01,2013-02-26 10:48:00,
2013-02-26 02:50:00,40.1,33.5,29.98,NW,322,2.0,5.0,77,0.00,,FEW200,0.00,VWS V14.01,2013-02-26 10:50:00,
2013-02-26 02:53:00,38.0,31.8,30.00,NW,321,0.0,0.0,78,0.00,,SKC,0.00,VWS V14.01,2013-02-26 10:53:00,
2013-02-26 02:58:00,37.9,31.7,30.00,NW,321,0.0,0.0,78,0.00,,SKC,0.00,VWS V14.01,2013-02-26 10:58:00,
2013-02-26 03:00:00,37.9,31.7,30.00,NW,321,0.0,0.0,78,0.00,,SKC,0.00,VWS V14.01,2013-02-26 11:00:00,
2013-02-26 03:03:00,37.7,31.5,30.00,NW,321,0.0,0.0,78,0.00,,SKC,0.00,VWS V14.01,2013-02-26 11:03:00,
2013-02-26 03:08:00,37.7,31.8,30.00,NW,321,0.0,0.0,79,0.00,,SKC,0.00,VWS V14.01,2013-02-26 11:08:00,
2013-02-26 03:10:00,37.7,31.8,30.00,NW,321,0.0,0.0,79,0.00,,SKC,0.00,VWS V14.01,2013-02-26 11:10:00,
2013-02-26 03:13:00,37.5,31.6,30.00,NW,321,0.0,0.0,79,0.00,,SKC,0.00,VWS V14.01,2013-02-26 11:13:00,
2013-02-26 03:18:00,37.5,32.2,29.99,NW,321,0.0,1.0,81,0.00,,SKC,0.00,VWS V14.01,2013-02-26 11:18:00,
2013-02-26 03:20:00,37.4,32.1,29.99,NW,321,0.0,1.0,81,0.00,,SKC,0.00,VWS V14.01,2013-02-26 11:20:00,
2013-02-26 03:23:00,37.6,32.6,29.99,NW,321,0.0,2.0,82,0.00,,SKC,0.00,VWS V14.01,2013-02-26 11:23:00,
2013-02-26 03:28:00,37.9,32.9,29.99,NW,321,0.0,2.0,82,0.00,,SKC,0.00,VWS V14.01,2013-02-26 11:28:00,
2013-02-26 03:30:00,40.7,33.7,29.98,NW,322,5.0,5.0,76,0.00,,BKN110,0.00,VWS V14.01,2013-02-26 11:30:00,
2013-02-26 03:33:00,38.3,33.0,29.99,NW,321,2.0,5.0,81,0.00,,SKC,0.00,VWS V14.01,2013-02-26 11:33:00,
2013-02-26 03:38:00,39.0,33.0,29.99,NW,321,2.0,5.0,79,0.00,,SKC,0.00,VWS V14.01,2013-02-26 11:38:00,
2013-02-26 03:40:00,39.2,33.2,29.99,NW,321,0.0,5.0,79,0.00,,SKC,0.00,VWS V14.01,2013-02-26 11:40:00,
2013-02-26 03:43:00,39.7,33.4,29.98,NW,321,2.0,4.0,78,0.00,,SKC,0.00,VWS V14.01,2013-02-26 11:43:00,
2013-02-26 03:48:00,40.1,33.5,29.98,NW,322,0.0,5.0,77,0.00,,SKC,0.00,VWS V14.01,2013-02-26 11:48:00,
2013-02-26 03:50:00,40.1,33.5,29.98,NW,322,2.0,5.0,77,0.00,,SKC,0.00,VWS V14.01,2013-02-26 11:50:00,
2013-02-26 03:53:00,40.3,33.7,29.98,NW,322,4.0,4.0,77,0.00,,SKC,0.00,VWS V14.01,2013-02-26 11:53:00,
2013-02-26 03:58:00,40.5,33.9,29.98,NW,322,2.0,4.0,77,0.00,,SKC,0.00,VWS V14.01,2013-02-26 11:58:00,
2013-02-26 04:00:00,40.5,33.9,29.98,NW,322,2.0,4.0,77,0.00,,SKC,0.00,VWS V14.01,2013-02-26 12:00:00,
2013-02-26 04:03:00,40.7,34.1,29.98,NW,322,2.0,5.0,77,0.00,,SKC,0.00,VWS V14.01,2013-02-26 12:03:00,
2013-02-26 04:08:00,40.9,34.3,29.98,NW,322,4.0,5.0,77,0.00,,SKC,0.00,VWS V14.01,2013-02-26 12:08:00,
2013-02-26 04:10:00,40.8,34.2,29.98,NW,322,2.0,5.0,77,0.00,,SKC,0.00,VWS V14.01,2013-02-26 12:10:00,
2013-02-26 04:13:00,40.9,34.3,29.98,NW,322,4.0,4.0,77,0.00,,SKC,0.00,VWS V14.01,2013-02-26 12:13:00,
2013-02-26 04:18:00,40.9,34.3,29.98,NW,322,2.0,4.0,77,0.00,,SKC,0.00,VWS V14.01,2013-02-26 12:18:00,
2013-02-26 04:20:00,40.9,34.3,29.98,NW,322,4.0,4.0,77,0.00,,SKC,0.00,VWS V14.01,2013-02-26 12:20:00,
2013-02-26 04:23:00,40.8,34.2,29.98,NW,322,1.0,4.0,77,0.00,,SKC,0.00,VWS V14.01,2013-02-26 12:23:00,
2013-02-26 04:28:00,40.7,34.1,29.98,NW,322,2.0,5.0,77,0.00,,SKC,0.00,VWS V14.01,2013-02-26 12:28:00,
2013-02-26 04:30:00,40.7,33.7,29.98,NW,322,5.0,5.0,76,0.00,,SKC,0.00,VWS V14.01,2013-02-26 12:30:00,
2013-02-26 04:33:00,40.6,33.6,29.98,NW,322,5.0,5.0,76,0.00,,SKC,0.00,VWS V14.01,2013-02-26 12:33:00,
2013-02-26 04:38:00,40.6,33.6,29.98,NW,322,1.0,5.0,76,0.00,,SKC,0.00,VWS V14.01,2013-02-26 12:38:00,
2013-02-26 04:40:00,40.6,33.6,29.98,NW,322,1.0,5.0,76,0.00,,SKC,0.00,VWS V14.01,2013-02-26 12:40:00,
2013-02-26 04:43:00,40.5,33.5,29.99,NW,322,1.0,4.0,76,0.00,,SKC,0.00,VWS V14.01,2013-02-26 12:43:00,
2013-02-26 04:48:00,40.2,33.6,29.99,NW,322,0.0,4.0,77,0.00,,SKC,0.00,VWS V14.01,2013-02-26 12:48:00,
2013-02-26 04:50:00,40.1,33.5,29.99,NW,322,0.0,4.0,77,0.00,,SKC,0.00,VWS V14.01,2013-02-26 12:50:00,
2013-02-26 04:53:00,39.8,33.5,29.99,NW,322,0.0,2.0,78,0.00,,SKC,0.00,VWS V14.01,2013-02-26 12:53:00,
2013-02-26 04:58:00,39.4,33.1,29.99,NW,322,1.0,4.0,78,0.00,,SKC,0.00,VWS V14.01,2013-02-26 12:58:00,
2013-02-26 05:00:00,39.4,33.1,29.99,NW,322,1.0,4.0,78,0.00,,SKC,0.00,VWS V14.01,2013-02-26 13:00:00,
2013-02-26 05:04:00,39.1,33.2,29.99,NW,322,1.0,2.0,79,0.00,,SKC,0.00,VWS V14.01,2013-02-26 13:04:00,
2013-02-26 05:09:00,38.8,33.2,29.99,WNW,303,1.0,4.0,80,0.00,,SKC,0.00,VWS V14.01,2013-02-26 13:09:00,
2013-02-26 05:10:00,38.8,33.2,29.99,WNW,303,1.0,4.0,80,0.00,,SKC,0.00,VWS V14.01,2013-02-26 13:10:00,
2013-02-26 05:14:00,38.6,32.7,29.99,West,279,1.0,4.0,79,0.00,,SKC,0.00,VWS V14.01,2013-02-26 13:14:00,
2013-02-26 05:19:00,38.2,32.0,29.99,West,273,2.0,6.0,78,0.00,,SKC,0.00,VWS V14.01,2013-02-26 13:19:00,
2013-02-26 05:20:00,38.2,32.0,29.99,West,273,2.0,6.0,78,0.00,,SKC,0.00,VWS V14.01,2013-02-26 13:20:00,
2013-02-26 05:24:00,37.9,31.7,29.99,WNW,288,2.0,7.0,78,0.00,,SKC,0.00,VWS V14.01,2013-02-26 13:24:00,
2013-02-26 05:29:00,37.6,31.4,29.99,WNW,295,1.0,7.0,78,0.00,,SKC,0.00,VWS V14.01,2013-02-26 13:29:00,
2013-02-26 05:30:00,37.6,31.4,29.99,WNW,295,1.0,7.0,78,0.00,,SKC,0.00,VWS V14.01,2013-02-26 13:30:00,
2013-02-26 05:34:00,37.5,31.3,29.99,WNW,300,2.0,6.0,78,0.00,,SKC,0.00,VWS V14.01,2013-02-26 13:34:00,
2013-02-26 05:39:00,37.3,31.4,29.99,WNW,289,4.0,4.0,79,0.00,,SKC,0.00,VWS V14.01,2013-02-26 13:39:00,
2013-02-26 05:40:00,37.3,31.4,29.99,WNW,285,4.0,7.0,79,0.00,,SKC,0.00,VWS V14.01,2013-02-26 13:40:00,
2013-02-26 05:44:00,37.3,31.4,29.99,WNW,287,4.0,7.0,79,0.00,,SKC,0.00,VWS V14.01,2013-02-26 13:44:00,
2013-02-26 05:49:00,37.4,31.5,29.99,WNW,296,4.0,5.0,79,0.00,,SKC,0.00,VWS V14.01,2013-02-26 13:49:00,
2013-02-26 05:50:00,37.4,31.5,29.99,WNW,296,5.0,7.0,79,0.00,,SKC,0.00,VWS V14.01,2013-02-26 13:50:00,
2013-02-26 05:54:00,37.4,31.5,29.99,NW,305,4.0,7.0,79,0.00,,SKC,0.00,VWS V14.01,2013-02-26 13:54:00,
2013-02-26 05:59:00,37.2,31.3,29.99,NW,315,4.0,5.0,79,0.00,,SKC,0.00,VWS V14.01,2013-02-26 13:59:00,
2013-02-26 06:00:00,37.3,31.4,29.99,NW,315,5.0,7.0,79,0.00,,SKC,0.00,VWS V14.01,2013-02-26 14:00:00,
2013-02-26 06:04:00,37.1,31.2,29.99,NW,314,2.0,5.0,79,0.00,,SKC,0.00,VWS V14.01,2013-02-26 14:04:00,
2013-02-26 06:09:00,37.0,31.1,29.99,WNW,303,5.0,5.0,79,0.00,,SKC,0.00,VWS V14.01,2013-02-26 14:09:00,
2013-02-26 06:10:00,37.0,31.1,29.99,WNW,303,4.0,6.0,79,0.00,,SKC,0.00,VWS V14.01,2013-02-26 14:10:00,
2013-02-26 06:14:00,36.9,31.0,30.00,WNW,302,4.0,6.0,79,0.00,,SKC,0.00,VWS V14.01,2013-02-26 14:14:00,
2013-02-26 06:19:00,36.8,31.2,30.00,NW,304,4.0,4.0,80,0.00,,SKC,0.00,VWS V14.01,2013-02-26 14:19:00,
2013-02-26 06:20:00,36.8,30.9,30.00,NW,304,2.0,7.0,79,0.00,,SKC,0.00,VWS V14.01,2013-02-26 14:20:00,
2013-02-26 06:24:00,36.8,31.2,30.00,WNW,301,2.0,6.0,80,0.00,,SKC,0.00,VWS V14.01,2013-02-26 14:24:00,
2013-02-26 06:29:00,36.7,31.1,29.99,WNW,301,2.0,2.0,80,0.00,,SKC,0.00,VWS V14.01,2013-02-26 14:29:00,
2013-02-26 06:30:00,37.4,31.2,30.00,WNW,300,1.0,7.0,78,0.00,,BKN110,0.00,VWS V14.01,2013-02-26 14:30:00,
2013-02-26 06:34:00,36.7,31.1,29.99,NW,305,6.0,6.0,80,0.00,,SKC,0.00,VWS V14.01,2013-02-26 14:34:00,
2013-02-26 06:39:00,36.8,31.2,29.99,NW,310,1.0,4.0,80,0.00,,SKC,0.00,VWS V14.01,2013-02-26 14:39:00,
2013-02-26 06:40:00,37.9,31.4,30.00,WNW,291,2.0,6.0,77,0.00,,BKN110,0.00,VWS V14.01,2013-02-26 14:40:00,
2013-02-26 06:44:00,36.8,31.2,29.99,WNW,302,4.0,5.0,80,0.00,,SKC,0.00,VWS V14.01,2013-02-26 14:44:00,
2013-02-26 06:49:00,37.0,31.4,29.99,WNW,302,5.0,5.0,80,0.00,,SKC,0.00,VWS V14.01,2013-02-26 14:49:00,
2013-02-26 06:50:00,38.8,31.9,30.00,WNW,291,0.0,2.0,76,0.00,,BKN110,0.00,VWS V14.01,2013-02-26 14:50:00,
2013-02-26 06:54:00,37.0,31.4,29.99,NW,309,5.0,6.0,80,0.00,,SKC,0.00,VWS V14.01,2013-02-26 14:54:00,
2013-02-26 07:00:00,37.1,31.5,29.99,NW,309,2.0,4.0,80,0.00,,SKC,0.00,VWS V14.01,2013-02-26 15:00:00,
2013-02-26 07:05:00,37.1,31.2,29.99,West,281,5.0,6.0,79,0.00,,FEW150,0.00,VWS V14.01,2013-02-26 15:05:00,
2013-02-26 07:10:00,37.0,31.1,29.99,WNW,293,2.0,4.0,79,0.00,,FEW150,0.00,VWS V14.01,2013-02-26 15:10:00,
2013-02-26 07:15:00,37.0,31.1,30.00,WNW,285,5.0,6.0,79,0.00,,FEW150,0.00,VWS V14.01,2013-02-26 15:15:00,
2013-02-26 07:20:00,37.0,31.1,30.00,West,273,4.0,5.0,79,0.00,,FEW150,0.00,VWS V14.01,2013-02-26 15:20:00,
2013-02-26 07:25:00,37.1,31.2,30.00,WNW,298,2.0,7.0,79,0.00,,FEW150,0.00,VWS V14.01,2013-02-26 15:25:00,
2013-02-26 07:30:00,37.5,31.3,30.00,West,279,2.0,5.0,78,0.00,,FEW150,0.00,VWS V14.01,2013-02-26 15:30:00,
2013-02-26 07:35:00,37.7,31.1,30.00,WNW,289,1.0,6.0,77,0.00,,FEW150,0.00,VWS V14.01,2013-02-26 15:35:00,
2013-02-26 07:40:00,38.0,31.4,30.00,WNW,291,0.0,2.0,77,0.00,,FEW150,0.00,VWS V14.01,2013-02-26 15:40:00,
2013-02-26 07:45:00,38.4,31.8,30.00,WNW,291,0.0,2.0,77,0.00,,FEW150,0.00,VWS V14.01,2013-02-26 15:45:00,
2013-02-26 07:50:00,39.0,32.1,30.00,WNW,291,2.0,2.0,76,0.00,,FEW150,0.00,VWS V14.01,2013-02-26 15:50:00,
2013-02-26 07:55:00,40.0,32.1,30.00,WNW,301,0.0,6.0,73,0.00,,FEW150,0.00,VWS V14.01,2013-02-26 15:55:00,
2013-02-26 08:00:00,41.1,32.4,30.02,NW,311,0.0,4.0,71,0.00,,FEW150,0.00,VWS V14.01,2013-02-26 16:00:00,
2013-02-26 08:05:00,42.1,32.0,30.02,NW,320,2.0,8.0,67,0.00,,FEW150,0.00,VWS V14.01,2013-02-26 16:05:00,
2013-02-26 08:10:00,42.9,32.0,30.02,NW,304,5.0,5.0,65,0.00,,FEW150,0.00,VWS V14.01,2013-02-26 16:10:00,
2013-02-26 08:15:00,43.5,31.4,30.01,NW,324,4.0,10.0,62,0.00,,FEW150,0.00,VWS V14.01,2013-02-26 16:15:00,
2013-02-26 08:20:00,44.1,31.9,30.01,WNW,290,6.0,6.0,62,0.00,,FEW150,0.00,VWS V14.01,2013-02-26 16:20:00,
2013-02-26 08:26:00,44.5,31.5,30.01,NW,308,4.0,8.0,60,0.00,,FEW150,0.00,VWS V14.01,2013-02-26 16:26:00,
2013-02-26 08:30:00,44.8,32.2,30.01,WNW,299,5.0,8.0,61,0.00,,SKC,0.00,VWS V14.01,2013-02-26 16:30:00,
2013-02-26 08:31:00,45.0,31.1,30.01,NW,310,2.0,8.0,58,0.00,,FEW150,0.00,VWS V14.01,2013-02-26 16:31:00,
2013-02-26 08:36:00,45.7,31.4,30.01,WNW,302,4.0,9.0,57,0.00,,FEW150,0.00,VWS V14.01,2013-02-26 16:36:00,
2013-02-26 08:40:00,45.9,31.1,30.01,NW,306,6.0,11.0,56,0.00,,SKC,0.00,VWS V14.01,2013-02-26 16:40:00,
2013-02-26 08:41:00,46.0,30.8,30.01,NW,304,6.0,10.0,55,0.00,,FEW150,0.00,VWS V14.01,2013-02-26 16:41:00,
2013-02-26 08:46:00,46.3,30.6,30.01,NW,307,11.0,12.0,54,0.00,,FEW150,0.00,VWS V14.01,2013-02-26 16:46:00,
2013-02-26 08:50:00,46.6,30.4,30.01,NW,308,6.0,12.0,53,0.00,,SKC,0.00,VWS V14.01,2013-02-26 16:50:00,
2013-02-26 08:51:00,46.8,30.6,30.01,NNW,331,3.0,10.0,53,0.00,,FEW150,0.00,VWS V14.01,2013-02-26 16:51:00,
2013-02-26 08:56:00,47.4,31.1,30.01,WNW,300,4.0,10.0,53,0.00,,FEW150,0.00,VWS V14.01,2013-02-26 16:56:00,
2013-02-26 09:00:00,47.8,31.5,30.01,NW,313,1.0,10.0,53,0.00,,SKC,0.00,VWS V14.01,2013-02-26 17:00:00,
2013-02-26 09:01:00,48.1,30.8,30.01,NW,316,1.0,11.0,51,0.00,,FEW150,0.00,VWS V14.01,2013-02-26 17:01:00,
2013-02-26 09:06:00,49.0,31.2,30.01,NNW,327,8.0,11.0,50,0.00,,FEW150,0.00,VWS V14.01,2013-02-26 17:06:00,
2013-02-26 09:10:00,49.3,30.5,30.01,NW,323,2.0,11.0,48,0.00,,SKC,0.00,VWS V14.01,2013-02-26 17:10:00,
2013-02-26 09:11:00,49.6,30.2,30.01,North,357,3.0,11.0,47,0.00,,FEW150,0.00,VWS V14.01,2013-02-26 17:11:00,
2013-02-26 09:16:00,50.2,30.2,30.01,NW,312,0.0,11.0,46,0.00,,FEW150,0.00,VWS V14.01,2013-02-26 17:16:00,
2013-02-26 09:20:00,50.5,30.0,30.01,NW,325,9.0,13.0,45,0.00,,SKC,0.00,VWS V14.01,2013-02-26 17:20:00,
2013-02-26 09:21:00,50.9,29.2,30.01,WNW,303,11.0,11.0,43,0.00,,FEW150,0.00,VWS V14.01,2013-02-26 17:21:00,
2013-02-26 09:26:00,51.5,29.8,30.01,WNW,288,5.0,11.0,43,0.00,,FEW150,0.00,VWS V14.01,2013-02-26 17:26:00,
2013-02-26 09:30:00,54.7,30.9,30.00,NW,321,6.0,17.0,40,0.00,,BKN110,0.00,VWS V14.01,2013-02-26 17:30:00,
2013-02-26 09:32:00,51.6,29.3,30.01,WNW,299,7.0,14.0,42,0.00,,FEW150,0.00,VWS V14.01,2013-02-26 17:32:00,
2013-02-26 09:37:00,51.3,29.6,30.01,NNW,335,6.0,17.0,43,0.00,,FEW150,0.00,VWS V14.01,2013-02-26 17:37:00,
2013-02-26 09:40:00,56.1,30.9,30.00,NW,316,1.0,15.0,38,0.00,,BKN110,0.00,VWS V14.01,2013-02-26 17:40:00,
2013-02-26 09:42:00,51.3,30.1,30.01,NNW,329,3.0,14.0,44,0.00,,FEW150,0.00,VWS V14.01,2013-02-26 17:42:00,
2013-02-26 09:47:00,51.8,30.6,30.00,NW,308,12.0,14.0,44,0.00,,FEW150,0.00,VWS V14.01,2013-02-26 17:47:00,
2013-02-26 09:50:00,57.5,30.8,30.00,WNW,300,8.0,10.0,36,0.00,,BKN110,0.00,VWS V14.01,2013-02-26 17:50:00,
2013-02-26 09:52:00,51.9,30.1,30.00,West,277,13.0,13.0,43,0.00,,FEW150,0.00,VWS V14.01,2013-02-26 17:52:00,
2013-02-26 09:57:00,52.2,29.8,30.00,NW,323,7.0,17.0,42,0.00,,FEW150,0.00,VWS V14.01,2013-02-26 17:57:00,
2013-02-26 10:00:00,58.2,30.7,29.99,WNW,299,5.0,13.0,35,0.00,,BKN110,0.00,VWS V14.01,2013-02-26 18:00:00,
2013-02-26 10:02:00,52.6,30.8,30.00,NNW,331,4.0,15.0,43,0.00,,FEW150,0.00,VWS V14.01,2013-02-26 18:02:00,
2013-02-26 10:07:00,52.5,31.2,30.00,WNW,299,11.0,16.0,44,0.00,,FEW150,0.00,VWS V14.01,2013-02-26 18:07:00,
2013-02-26 10:10:00,58.4,30.2,29.99,West,273,6.0,14.0,34,0.00,,BKN110,0.00,VWS V14.01,2013-02-26 18:10:00,
2013-02-26 10:12:00,53.1,30.6,30.00,NW,311,13.0,17.0,42,0.00,,FEW150,0.00,VWS V14.01,2013-02-26 18:12:00,
2013-02-26 10:17:00,53.2,30.1,30.00,West,277,12.0,17.0,41,0.00,,FEW150,0.00,VWS V14.01,2013-02-26 18:17:00,
2013-02-26 10:20:00,53.3,30.8,30.00,WNW,285,6.0,17.0,42,0.00,,SKC,0.00,VWS V14.01,2013-02-26 18:20:00,
2013-02-26 10:22:00,53.9,30.8,30.00,West,276,4.0,14.0,41,0.00,,FEW150,0.00,VWS V14.01,2013-02-26 18:22:00,
2013-02-26 10:27:00,54.6,30.8,30.00,NW,310,4.0,17.0,40,0.00,,FEW150,0.00,VWS V14.01,2013-02-26 18:27:00,
2013-02-26 10:30:00,54.7,30.9,30.00,NW,321,6.0,17.0,40,0.00,,SKC,0.00,VWS V14.01,2013-02-26 18:30:00,
2013-02-26 10:33:00,55.3,30.8,30.00,WSW,254,8.0,13.0,39,0.00,,FEW150,0.00,VWS V14.01,2013-02-26 18:33:00,
2013-02-26 10:38:00,56.0,30.8,30.00,WNW,301,7.0,15.0,38,0.00,,FEW150,0.00,VWS V14.01,2013-02-26 18:38:00,
2013-02-26 10:40:00,56.1,30.9,30.00,NW,316,1.0,15.0,38,0.00,,SKC,0.00,VWS V14.01,2013-02-26 18:40:00,
2013-02-26 10:43:00,56.8,31.5,30.00,NW,317,8.0,9.0,38,0.00,,FEW150,0.00,VWS V14.01,2013-02-26 18:43:00,
2013-02-26 10:48:00,57.4,31.4,30.00,NW,307,10.0,10.0,37,0.00,,FEW150,0.00,VWS V14.01,2013-02-26 18:48:00,
2013-02-26 10:50:00,61.4,32.8,29.99,NW,323,7.0,13.0,34,0.00,,BKN110,0.00,VWS V14.01,2013-02-26 18:50:00,
2013-02-26 10:53:00,57.6,30.9,30.00,WNW,289,4.0,13.0,36,0.00,,FEW150,0.00,VWS V14.01,2013-02-26 18:53:00,
2013-02-26 10:58:00,58.2,30.7,29.99,NW,314,2.0,13.0,35,0.00,,FEW150,0.00,VWS V14.01,2013-02-26 18:58:00,
2013-02-26 11:00:00,61.9,31.0,29.99,WNW,291,6.0,13.0,31,0.00,,BKN110,0.00,VWS V14.01,2013-02-26 19:00:00,
2013-02-26 11:03:00,58.5,30.2,29.99,North,6,3.0,14.0,34,0.00,,SKC,0.00,VWS V14.01,2013-02-26 19:03:00,
2013-02-26 11:08:00,58.4,30.2,29.99,WNW,303,4.0,14.0,34,0.00,,SKC,0.00,VWS V14.01,2013-02-26 19:08:00,
2013-02-26 11:10:00,58.4,30.2,29.99,West,273,6.0,14.0,34,0.00,,SKC,0.00,VWS V14.01,2013-02-26 19:10:00,
2013-02-26 11:13:00,58.8,30.5,29.99,NW,308,4.0,11.0,34,0.00,,SKC,0.00,VWS V14.01,2013-02-26 19:13:00,
2013-02-26 11:18:00,59.1,31.5,29.99,NNW,327,5.0,12.0,35,0.00,,SKC,0.00,VWS V14.01,2013-02-26 19:18:00,
2013-02-26 11:20:00,59.1,31.5,29.99,NW,320,2.0,12.0,35,0.00,,SKC,0.00,VWS V14.01,2013-02-26 19:20:00,
2013-02-26 11:23:00,59.6,29.7,29.99,NW,315,8.0,16.0,32,0.00,,SKC,0.00,VWS V14.01,2013-02-26 19:23:00,
2013-02-26 11:28:00,59.9,30.0,29.99,NW,308,7.0,16.0,32,0.00,,SKC,0.00,VWS V14.01,2013-02-26 19:28:00,
2013-02-26 11:30:00,59.9,30.0,29.99,NNW,329,2.0,16.0,32,0.00,,SKC,0.00,VWS V14.01,2013-02-26 19:30:00,
2013-02-26 11:33:00,60.5,30.5,29.99,NW,315,6.0,14.0,32,0.00,,SKC,0.00,VWS V14.01,2013-02-26 19:33:00,
2013-02-26 11:39:00,60.5,30.5,29.99,WNW,291,6.0,15.0,32,0.00,,SKC,0.00,VWS V14.01,2013-02-26 19:39:00,
2013-02-26 11:40:00,60.5,30.5,29.99,WNW,291,6.0,15.0,32,0.00,,SKC,0.00,VWS V14.01,2013-02-26 19:40:00,
2013-02-26 11:44:00,61.0,31.7,29.99,NW,320,4.0,10.0,33,0.00,,SKC,0.00,VWS V14.01,2013-02-26 19:44:00,
2013-02-26 11:49:00,61.4,32.8,29.99,NW,312,4.0,7.0,34,0.00,,SKC,0.00,VWS V14.01,2013-02-26 19:49:00,
2013-02-26 11:50:00,61.4,32.8,29.99,NW,323,7.0,13.0,34,0.00,,SKC,0.00,VWS V14.01,2013-02-26 19:50:00,
2013-02-26 11:54:00,62.0,31.8,29.99,NW,318,9.0,13.0,32,0.00,,SKC,0.00,VWS V14.01,2013-02-26 19:54:00,
2013-02-26 11:59:00,62.0,31.0,29.99,WNW,300,7.0,8.0,31,0.00,,SKC,0.00,VWS V14.01,2013-02-26 19:59:00,
2013-02-26 12:00:00,61.9,31.0,29.99,WNW,291,6.0,13.0,31,0.00,,SKC,0.00,VWS V14.01,2013-02-26 20:00:00,
2013-02-26 12:04:00,61.8,30.9,29.99,NW,306,5.0,15.0,31,0.00,,SKC,0.00,VWS V14.01,2013-02-26 20:04:00,
2013-02-26 12:09:00,62.2,29.6,29.99,NW,318,7.0,11.0,29,0.00,,SKC,0.00,VWS V14.01,2013-02-26 20:09:00,
2013-02-26 12:10:00,62.2,30.4,29.99,West,269,7.0,15.0,30,0.00,,SKC,0.00,VWS V14.01,2013-02-26 20:10:00,
2013-02-26 12:14:00,62.4,28.9,29.98,WNW,285,14.0,16.0,28,0.00,,SKC,0.00,VWS V14.01,2013-02-26 20:14:00,
2013-02-26 12:19:00,62.6,29.1,29.98,NW,323,13.0,13.0,28,0.00,,SKC,0.00,VWS V14.01,2013-02-26 20:19:00,
2013-02-26 12:20:00,62.6,29.1,29.98,NNW,342,7.0,16.0,28,0.00,,SKC,0.00,VWS V14.01,2013-02-26 20:20:00,
2013-02-26 12:24:00,62.9,28.4,29.98,NNW,333,6.0,17.0,27,0.00,,SKC,0.00,VWS V14.01,2013-02-26 20:24:00,
2013-02-26 12:29:00,62.9,30.2,29.97,WNW,282,9.0,10.0,29,0.00,,SKC,0.00,VWS V14.01,2013-02-26 20:29:00,
2013-02-26 12:30:00,65.0,29.3,29.94,WNW,283,6.0,17.0,26,0.00,,BKN110,0.00,VWS V14.01,2013-02-26 20:30:00,
2013-02-26 12:34:00,63.5,29.8,29.97,WSW,248,1.0,13.0,28,0.00,,SKC,0.00,VWS V14.01,2013-02-26 20:34:00,
2013-02-26 12:39:00,63.9,30.2,29.97,NW,323,12.0,16.0,28,0.00,,SKC,0.00,VWS V14.01,2013-02-26 20:39:00,
2013-02-26 12:40:00,63.9,30.2,29.97,NW,304,12.0,17.0,28,0.00,,SKC,0.00,VWS V14.01,2013-02-26 20:40:00,
2013-02-26 12:44:00,63.9,30.2,29.97,NW,316,10.0,16.0,28,0.00,,SKC,0.00,VWS V14.01,2013-02-26 20:44:00,
2013-02-26 12:50:00,64.2,28.6,29.97,NW,313,9.0,21.0,26,0.00,,SKC,0.00,VWS V14.01,2013-02-26 20:50:00,
2013-02-26 12:55:00,64.1,30.4,29.97,NNW,328,5.0,21.0,28,0.00,,SKC,0.00,VWS V14.01,2013-02-26 20:55:00,
2013-02-26 13:00:00,64.3,28.7,29.96,WNW,295,8.0,15.0,26,0.00,,SKC,0.00,VWS V14.01,2013-02-26 21:00:00,
2013-02-26 13:05:00,64.0,27.5,29.96,NW,304,11.0,20.0,25,0.00,,SKC,0.00,VWS V14.01,2013-02-26 21:05:00,
2013-02-26 13:10:00,64.1,27.6,29.96,NNW,335,9.0,17.0,25,0.00,,SKC,0.00,VWS V14.01,2013-02-26 21:10:00,
2013-02-26 13:15:00,64.3,27.8,29.95,NW,322,13.0,18.0,25,0.00,,SKC,0.00,VWS V14.01,2013-02-26 21:15:00,
2013-02-26 13:20:00,64.6,28.0,29.95,WNW,285,12.0,16.0,25,0.00,,SKC,0.00,VWS V14.01,2013-02-26 21:20:00,
2013-02-26 13:25:00,64.7,29.0,29.95,WNW,296,9.0,17.0,26,0.00,,SKC,0.00,VWS V14.01,2013-02-26 21:25:00,
2013-02-26 13:30:00,65.2,28.5,29.94,NW,321,12.0,14.0,25,0.00,,SKC,0.00,VWS V14.01,2013-02-26 21:30:00,
2013-02-26 13:35:00,65.5,27.8,29.94,WNW,284,5.0,16.0,24,0.00,,SKC,0.00,VWS V14.01,2013-02-26 21:35:00,
2013-02-26 13:40:00,65.6,28.9,29.94,NNW,333,5.0,9.0,25,0.00,,SKC,0.00,VWS V14.01,2013-02-26 21:40:00,
2013-02-26 13:45:00,66.3,29.5,29.94,NW,320,7.0,11.0,25,0.00,,SKC,0.00,VWS V14.01,2013-02-26 21:45:00,
2013-02-26 13:50:00,66.5,28.6,29.94,North,358,10.0,13.0,24,0.00,,SKC,0.00,VWS V14.01,2013-02-26 21:50:00,
2013-02-26 13:55:00,66.4,28.5,29.94,NW,313,12.0,13.0,24,0.00,,SKC,0.00,VWS V14.01,2013-02-26 21:55:00,
2013-02-26 14:00:00,66.3,28.5,29.94,WNW,292,6.0,12.0,24,0.00,,SKC,0.00,VWS V14.01,2013-02-26 22:00:00,
2013-02-26 14:05:00,66.5,28.6,29.94,West,279,8.0,15.0,24,0.00,,SKC,0.00,VWS V14.01,2013-02-26 22:05:00,
2013-02-26 14:10:00,66.9,29.0,29.94,West,276,6.0,17.0,24,0.00,,SKC,0.00,VWS V14.01,2013-02-26 22:10:00,
2013-02-26 14:15:00,66.8,29.9,29.94,NNW,330,2.0,17.0,25,0.00,,SKC,0.00,VWS V14.01,2013-02-26 22:15:00,
2013-02-26 14:20:00,66.6,29.7,29.94,WSW,241,6.0,17.0,25,0.00,,SKC,0.00,VWS V14.01,2013-02-26 22:20:00,
2013-02-26 14:21:00,66.6,29.7,29.94,West,273,12.0,17.0,25,0.00,,SKC,0.00,VWS V14.01,2013-02-26 22:21:00,
2013-02-26 14:26:00,66.5,29.6,29.94,WNW,303,6.0,17.0,25,0.00,,SKC,0.00,VWS V14.01,2013-02-26 22:26:00,
2013-02-26 14:30:00,66.6,29.7,29.94,NNW,346,5.0,17.0,25,0.00,,SKC,0.00,VWS V14.01,2013-02-26 22:30:00,
2013-02-26 14:31:00,66.8,29.9,29.94,WNW,300,9.0,10.0,25,0.00,,SKC,0.00,VWS V14.01,2013-02-26 22:31:00,
2013-02-26 14:36:00,66.6,28.7,29.94,WNW,289,8.0,17.0,24,0.00,,SKC,0.00,VWS V14.01,2013-02-26 22:36:00,
2013-02-26 14:40:00,66.4,28.5,29.94,WNW,292,9.0,17.0,24,0.00,,SKC,0.00,VWS V14.01,2013-02-26 22:40:00,
2013-02-26 14:41:00,66.2,28.4,29.94,NW,322,6.0,17.0,24,0.00,,SKC,0.00,VWS V14.01,2013-02-26 22:41:00,
2013-02-26 14:46:00,66.1,28.3,29.94,NW,317,10.0,17.0,24,0.00,,SKC,0.00,VWS V14.01,2013-02-26 22:46:00,
2013-02-26 14:50:00,66.1,28.3,29.94,NW,320,12.0,17.0,24,0.00,,SKC,0.00,VWS V14.01,2013-02-26 22:50:00,
2013-02-26 14:51:00,65.9,29.1,29.94,WNW,293,13.0,18.0,25,0.00,,SKC,0.00,VWS V14.01,2013-02-26 22:51:00,
2013-02-26 14:56:00,65.9,30.1,29.94,NW,317,10.0,18.0,26,0.00,,SKC,0.00,VWS V14.01,2013-02-26 22:56:00,
2013-02-26 15:00:00,66.0,30.2,29.93,NW,308,6.0,18.0,26,0.00,,SKC,0.00,VWS V14.01,2013-02-26 23:00:00,
2013-02-26 15:01:00,66.1,31.2,29.93,NW,313,4.0,12.0,27,0.00,,SCT140,0.00,VWS V14.01,2013-02-26 23:01:00,
2013-02-26 15:06:00,66.0,30.2,29.93,NW,324,11.0,15.0,26,0.00,,SCT140,0.00,VWS V14.01,2013-02-26 23:06:00,
2013-02-26 15:10:00,65.9,31.0,29.93,NNW,347,8.0,15.0,27,0.00,,SKC,0.00,VWS V14.01,2013-02-26 23:10:00,
2013-02-26 15:11:00,65.9,30.1,29.93,NNW,331,12.0,16.0,26,0.00,,SCT140,0.00,VWS V14.01,2013-02-26 23:11:00,
2013-02-26 15:16:00,65.6,30.8,29.94,NW,320,7.0,16.0,27,0.00,,SCT140,0.00,VWS V14.01,2013-02-26 23:16:00,
2013-02-26 15:20:00,65.5,30.7,29.94,WNW,296,7.0,16.0,27,0.00,,SKC,0.00,VWS V14.01,2013-02-26 23:20:00,
2013-02-26 15:21:00,65.5,30.7,29.94,NW,304,9.0,15.0,27,0.00,,SCT140,0.00,VWS V14.01,2013-02-26 23:21:00,
2013-02-26 15:26:00,65.5,31.6,29.94,WNW,287,6.0,15.0,28,0.00,,SCT140,0.00,VWS V14.01,2013-02-26 23:26:00,
2013-02-26 15:30:00,65.5,30.7,29.93,NW,310,11.0,15.0,27,0.00,,SKC,0.00,VWS V14.01,2013-02-26 23:30:00,
2013-02-26 15:31:00,65.4,31.5,29.93,NNW,331,4.0,11.0,28,0.00,,SCT140,0.00,VWS V14.01,2013-02-26 23:31:00,
2013-02-26 15:36:00,65.3,31.4,29.93,WNW,293,8.0,16.0,28,0.00,,SCT140,0.00,VWS V14.01,2013-02-26 23:36:00,
2013-02-26 15:40:00,65.1,32.1,29.93,WNW,287,7.0,16.0,29,0.00,,SKC,0.00,VWS V14.01,2013-02-26 23:40:00,
2013-02-26 15:41:00,65.0,32.0,29.93,WNW,284,5.0,11.0,29,0.00,,SCT140,0.00,VWS V14.01,2013-02-26 23:41:00,
2013-02-26 15:46:00,64.8,31.8,29.93,NW,312,1.0,13.0,29,0.00,,SCT140,0.00,VWS V14.01,2013-02-26 23:46:00,
2013-02-26 15:50:00,64.8,31.8,29.93,West,281,5.0,13.0,29,0.00,,SKC,0.00,VWS V14.01,2013-02-26 23:50:00,
2013-02-26 15:51:00,64.7,31.7,29.93,WNW,289,8.0,11.0,29,0.00,,SCT140,0.00,VWS V14.01,2013-02-26 23:51:00,
2013-02-26 15:56:00,64.6,31.6,29.93,NW,311,10.0,15.0,29,0.00,,SCT140,0.00,VWS V14.01,2013-02-26 23:56:00,
2013-02-26 16:00:00,64.4,30.6,29.93,NW,306,8.0,18.0,28,0.00,,SKC,0.00,VWS V14.01,2013-02-27 00:00:00,
2013-02-26 16:01:00,64.3,30.5,29.93,NNW,328,8.0,11.0,28,0.00,,SCT180,0.00,VWS V14.01,2013-02-27 00:01:00,
2013-02-26 16:06:00,64.2,31.3,29.93,NW,325,8.0,16.0,29,0.00,,SCT180,0.00,VWS V14.01,2013-02-27 00:06:00,
2013-02-26 16:10:00,64.2,31.3,29.93,NW,316,9.0,16.0,29,0.00,,SKC,0.00,VWS V14.01,2013-02-27 00:10:00,
2013-02-26 16:11:00,64.3,31.4,29.93,NNW,330,6.0,10.0,29,0.00,,SCT180,0.00,VWS V14.01,2013-02-27 00:11:00,
2013-02-26 16:16:00,64.3,31.4,29.93,NW,312,6.0,12.0,29,0.00,,SCT180,0.00,VWS V14.01,2013-02-27 00:16:00,
2013-02-26 16:20:00,64.2,31.3,29.93,WNW,298,6.0,13.0,29,0.00,,SKC,0.00,VWS V14.01,2013-02-27 00:20:00,
2013-02-26 16:21:00,64.1,31.2,29.93,NNW,344,7.0,12.0,29,0.00,,SCT180,0.00,VWS V14.01,2013-02-27 00:21:00,
2013-02-26 16:26:00,63.9,31.9,29.93,WNW,296,7.0,12.0,30,0.00,,SCT180,0.00,VWS V14.01,2013-02-27 00:26:00,
2013-02-26 16:30:00,63.9,31.9,29.94,NW,323,11.0,12.0,30,0.00,,SKC,0.00,VWS V14.01,2013-02-27 00:30:00,
2013-02-26 16:31:00,63.9,31.9,29.94,WNW,302,2.0,11.0,30,0.00,,SCT180,0.00,VWS V14.01,2013-02-27 00:31:00,
2013-02-26 16:36:00,64.0,32.0,29.94,NW,316,5.0,11.0,30,0.00,,SCT180,0.00,VWS V14.01,2013-02-27 00:36:00,
2013-02-26 16:40:00,64.0,32.8,29.94,NW,325,7.0,11.0,31,0.00,,SKC,0.00,VWS V14.01,2013-02-27 00:40:00,
2013-02-26 16:41:00,64.0,32.0,29.94,NNW,329,5.0,11.0,30,0.00,,SCT180,0.00,VWS V14.01,2013-02-27 00:41:00,
2013-02-26 16:47:00,64.1,32.9,29.93,NNW,329,2.0,11.0,31,0.00,,SCT180,0.00,VWS V14.01,2013-02-27 00:47:00,
2013-02-26 16:50:00,64.1,32.1,29.93,WNW,300,7.0,11.0,30,0.00,,SKC,0.00,VWS V14.01,2013-02-27 00:50:00,
2013-02-26 16:52:00,64.0,32.0,29.93,WNW,298,6.0,8.0,30,0.00,,SCT180,0.00,VWS V14.01,2013-02-27 00:52:00,
2013-02-26 16:57:00,63.7,30.9,29.93,WNW,293,10.0,14.0,29,0.00,,SCT180,0.00,VWS V14.01,2013-02-27 00:57:00,
2013-02-26 17:00:00,63.6,31.6,29.94,WNW,288,6.0,14.0,30,0.00,,SKC,0.00,VWS V14.01,2013-02-27 01:00:00,
2013-02-26 17:02:00,63.3,31.4,29.94,NW,317,9.0,9.0,30,0.00,,SCT140,0.00,VWS V14.01,2013-02-27 01:02:00,
2013-02-26 17:07:00,63.0,31.1,29.94,NW,324,10.0,13.0,30,0.00,,SCT140,0.00,VWS V14.01,2013-02-27 01:07:00,
2013-02-26 17:10:00,62.9,31.0,29.94,NW,312,5.0,15.0,30,0.00,,SKC,0.00,VWS V14.01,2013-02-27 01:10:00,
2013-02-26 17:12:00,62.8,30.9,29.94,NW,306,6.0,10.0,30,0.00,,SCT140,0.00,VWS V14.01,2013-02-27 01:12:00,
2013-02-26 17:17:00,62.6,31.6,29.93,NNW,328,6.0,11.0,31,0.00,,SCT140,0.00,VWS V14.01,2013-02-27 01:17:00,
2013-02-26 17:20:00,62.6,31.6,29.93,WNW,290,5.0,11.0,31,0.00,,SKC,0.00,VWS V14.01,2013-02-27 01:20:00,
2013-02-26 17:22:00,62.4,31.4,29.93,WNW,297,5.0,8.0,31,0.00,,SCT140,0.00,VWS V14.01,2013-02-27 01:22:00,
2013-02-26 17:27:00,62.2,31.2,29.93,WNW,284,6.0,10.0,31,0.00,,SCT140,0.00,VWS V14.01,2013-02-27 01:27:00,
2013-02-26 17:30:00,62.2,32.0,29.93,NNW,328,2.0,10.0,32,0.00,,SKC,0.00,VWS V14.01,2013-02-27 01:30:00,
2013-02-26 17:32:00,61.9,31.0,29.93,NW,314,5.0,10.0,31,0.00,,SCT140,0.00,VWS V14.01,2013-02-27 01:32:00,
2013-02-26 17:37:00,61.8,30.9,29.93,West,280,4.0,10.0,31,0.00,,SCT140,0.00,VWS V14.01,2013-02-27 01:37:00,
2013-02-26 17:40:00,61.7,31.6,29.93,NNW,331,4.0,10.0,32,0.00,,SKC,0.00,VWS V14.01,2013-02-27 01:40:00,
2013-02-26 17:42:00,61.6,31.5,29.93,WNW,295,2.0,10.0,32,0.00,,SCT140,0.00,VWS V14.01,2013-02-27 01:42:00,
2013-02-26 17:47:00,61.4,31.3,29.93,NW,322,1.0,10.0,32,0.00,,SCT140,0.00,VWS V14.01,2013-02-27 01:47:00,
2013-02-26 17:50:00,61.4,31.3,29.93,NW,320,0.0,10.0,32,0.00,,SKC,0.00,VWS V14.01,2013-02-27 01:50:00,
2013-02-26 17:52:00,61.1,31.0,29.93,NW,318,6.0,7.0,32,0.00,,SCT140,0.00,VWS V14.01,2013-02-27 01:52:00,
2013-02-26 17:57:00,60.9,31.6,29.93,WNW,298,2.0,8.0,33,0.00,,SCT140,0.00,VWS V14.01,2013-02-27 01:57:00,
2013-02-26 18:00:00,60.8,31.5,29.93,NW,312,5.0,8.0,33,0.00,,SKC,0.00,VWS V14.01,2013-02-27 02:00:00,
2013-02-26 18:03:00,60.6,31.4,29.93,West,278,2.0,5.0,33,0.00,,SCT140,0.00,VWS V14.01,2013-02-27 02:03:00,
2013-02-26 18:08:00,60.2,31.0,29.93,NW,316,4.0,10.0,33,0.00,,SCT140,0.00,VWS V14.01,2013-02-27 02:08:00,
2013-02-26 18:10:00,60.2,31.8,29.93,NW,314,4.0,10.0,34,0.00,,SKC,0.00,VWS V14.01,2013-02-27 02:10:00,
2013-02-26 18:13:00,60.1,31.7,29.93,NW,306,5.0,13.0,34,0.00,,SCT140,0.00,VWS V14.01,2013-02-27 02:13:00,
2013-02-26 18:18:00,59.9,31.5,29.93,WNW,300,4.0,13.0,34,0.00,,SCT140,0.00,VWS V14.01,2013-02-27 02:18:00,
2013-02-26 18:20:00,59.9,31.5,29.93,WNW,301,1.0,13.0,34,0.00,,SKC,0.00,VWS V14.01,2013-02-27 02:20:00,
2013-02-26 18:23:00,59.7,31.3,29.93,NNW,329,2.0,9.0,34,0.00,,SCT140,0.00,VWS V14.01,2013-02-27 02:23:00,
2013-02-26 18:28:00,59.4,31.0,29.94,NW,309,0.0,9.0,34,0.00,,SCT140,0.00,VWS V14.01,2013-02-27 02:28:00,
2013-02-26 18:30:00,59.3,31.7,29.94,NW,309,1.0,9.0,35,0.00,,SKC,0.00,VWS V14.01,2013-02-27 02:30:00,
2013-02-26 18:33:00,59.1,31.5,29.94,WNW,300,0.0,6.0,35,0.00,,SCT140,0.00,VWS V14.01,2013-02-27 02:33:00,
2013-02-26 18:38:00,58.8,31.2,29.94,NW,317,2.0,6.0,35,0.00,,SCT140,0.00,VWS V14.01,2013-02-27 02:38:00,
2013-02-26 18:40:00,58.8,30.5,29.94,NW,318,2.0,6.0,34,0.00,,SKC,0.00,VWS V14.01,2013-02-27 02:40:00,
2013-02-26 18:43:00,58.6,30.3,29.95,NW,319,1.0,6.0,34,0.00,,SCT140,0.00,VWS V14.01,2013-02-27 02:43:00,
2013-02-26 18:48:00,58.5,30.2,29.95,WNW,298,0.0,7.0,34,0.00,,SCT140,0.00,VWS V14.01,2013-02-27 02:48:00,
2013-02-26 18:50:00,58.5,30.2,29.95,WNW,298,0.0,7.0,34,0.00,,SKC,0.00,VWS V14.01,2013-02-27 02:50:00,
2013-02-26 18:53:00,58.2,30.0,29.95,WNW,300,0.0,2.0,34,0.00,,SCT140,0.00,VWS V14.01,2013-02-27 02:53:00,
2013-02-26 18:59:00,57.8,29.6,29.96,NW,325,0.0,8.0,34,0.00,,SCT140,0.00,VWS V14.01,2013-02-27 02:59:00,
2013-02-26 19:00:00,57.8,29.6,29.96,NW,325,0.0,8.0,34,0.00,,SKC,0.00,VWS V14.01,2013-02-27 03:00:00,
2013-02-26 19:04:00,57.5,29.4,29.96,NW,326,0.0,3.0,34,0.00,,SCT140,0.00,VWS V14.01,2013-02-27 03:04:00,
2013-02-26 19:09:00,57.2,29.8,29.96,NNW,327,3.0,4.0,35,0.00,,SCT140,0.00,VWS V14.01,2013-02-27 03:09:00,
2013-02-26 19:10:00,57.2,29.8,29.96,NW,326,3.0,3.0,35,0.00,,SKC,0.00,VWS V14.01,2013-02-27 03:10:00,
2013-02-26 19:14:00,57.0,30.3,29.96,NNW,327,0.0,4.0,36,0.00,,SCT140,0.00,VWS V14.01,2013-02-27 03:14:00,
2013-02-26 19:19:00,56.6,32.0,29.96,NNW,327,0.0,0.0,39,0.00,,SCT140,0.00,VWS V14.01,2013-02-27 03:19:00,
2013-02-26 19:20:00,56.6,32.0,29.96,NNW,327,0.0,4.0,39,0.00,,SKC,0.00,VWS V14.01,2013-02-27 03:20:00,
2013-02-26 19:24:00,56.2,32.2,29.96,NNW,327,0.0,3.0,40,0.00,,SCT140,0.00,VWS V14.01,2013-02-27 03:24:00,
2013-02-26 19:29:00,55.9,32.0,29.96,NW,317,1.0,4.0,40,0.00,,SCT140,0.00,VWS V14.01,2013-02-27 03:29:00,
2013-02-26 19:30:00,55.9,32.0,29.96,NW,316,2.0,5.0,40,0.00,,SKC,0.00,VWS V14.01,2013-02-27 03:30:00,
2013-02-26 19:34:00,55.9,32.6,29.96,NW,317,0.0,5.0,41,0.00,,SCT140,0.00,VWS V14.01,2013-02-27 03:34:00,
2013-02-26 19:40:00,55.8,31.9,29.96,NW,318,2.0,4.0,40,0.00,,SCT140,0.00,VWS V14.01,2013-02-27 03:40:00,
2013-02-26 19:45:00,55.8,31.9,29.96,NW,311,4.0,7.0,40,0.00,,SCT140,0.00,VWS V14.01,2013-02-27 03:45:00,
2013-02-26 19:50:00,55.8,31.2,29.96,NW,319,0.0,2.0,39,0.00,,SCT140,0.00,VWS V14.01,2013-02-27 03:50:00,
2013-02-26 19:55:00,55.8,31.9,29.96,NW,318,0.0,5.0,40,0.00,,SCT140,0.00,VWS V14.01,2013-02-27 03:55:00,
2013-02-26 20:00:00,55.7,31.1,29.97,WNW,303,2.0,5.0,39,0.00,,SCT140,0.00,VWS V14.01,2013-02-27 04:00:00,
2013-02-26 20:05:00,55.7,31.1,29.97,WNW,303,0.0,5.0,39,0.00,,SCT140,0.00,VWS V14.01,2013-02-27 04:05:00,
2013-02-26 20:10:00,55.6,31.1,29.97,WNW,303,1.0,5.0,39,0.00,,SCT140,0.00,VWS V14.01,2013-02-27 04:10:00,
2013-02-26 20:15:00,55.4,30.2,29.97,WNW,303,5.0,5.0,38,0.00,,SCT140,0.00,VWS V14.01,2013-02-27 04:15:00,
2013-02-26 20:20:00,55.2,30.1,29.97,WNW,303,1.0,4.0,38,0.00,,SCT140,0.00,VWS V14.01,2013-02-27 04:20:00,
2013-02-26 20:26:00,55.1,30.0,29.97,WNW,303,4.0,4.0,38,0.00,,SCT140,0.00,VWS V14.01,2013-02-27 04:26:00,
2013-02-26 20:30:00,55.1,30.0,29.97,WNW,303,1.0,4.0,38,0.00,,SKC,0.00,VWS V14.01,2013-02-27 04:30:00,
2013-02-26 20:31:00,55.2,30.1,29.97,WNW,303,2.0,4.0,38,0.00,,SCT140,0.00,VWS V14.01,2013-02-27 04:31:00,
2013-02-26 20:36:00,55.1,30.0,29.97,WNW,303,0.0,5.0,38,0.00,,SCT140,0.00,VWS V14.01,2013-02-27 04:36:00,
2013-02-26 20:40:00,55.1,30.0,29.97,NW,315,4.0,6.0,38,0.00,,SKC,0.00,VWS V14.01,2013-02-27 04:40:00,
2013-02-26 20:41:00,55.1,30.0,29.97,WNW,302,5.0,5.0,38,0.00,,SCT140,0.00,VWS V14.01,2013-02-27 04:41:00,
2013-02-26 20:46:00,55.2,30.1,29.97,NW,304,2.0,5.0,38,0.00,,SCT140,0.00,VWS V14.01,2013-02-27 04:46:00,
2013-02-26 20:50:00,55.2,30.1,29.97,NW,320,5.0,6.0,38,0.00,,SKC,0.00,VWS V14.01,2013-02-27 04:50:00,
2013-02-26 20:51:00,55.2,30.1,29.97,NW,318,4.0,6.0,38,0.00,,SCT140,0.00,VWS V14.01,2013-02-27 04:51:00,
2013-02-26 20:56:00,55.1,30.0,29.97,NW,310,0.0,6.0,38,0.00,,SCT140,0.00,VWS V14.01,2013-02-27 04:56:00,
2013-02-26 21:00:00,54.9,30.4,29.98,NW,310,1.0,4.0,39,0.00,,SCT140,0.00,VWS V14.01,2013-02-27 05:00:00,
2013-02-26 21:02:00,54.8,30.3,29.98,NW,310,0.0,4.0,39,0.00,,SKC,0.00,VWS V14.01,2013-02-27 05:02:00,
2013-02-26 21:07:00,54.5,31.3,29.98,NW,310,0.0,4.0,41,0.00,,SKC,0.00,VWS V14.01,2013-02-27 05:07:00,
2013-02-26 21:10:00,54.3,31.7,29.98,NW,310,1.0,4.0,42,0.00,,SKC,0.00,VWS V14.01,2013-02-27 05:10:00,
2013-02-26 21:12:00,53.9,32.5,29.98,NW,310,0.0,1.0,44,0.00,,SKC,0.00,VWS V14.01,2013-02-27 05:12:00,
2013-02-26 21:17:00,53.3,32.0,29.98,NNW,344,2.0,4.0,44,0.00,,SKC,0.00,VWS V14.01,2013-02-27 05:17:00,
2013-02-26 21:20:00,53.1,31.8,29.98,NNW,344,0.0,4.0,44,0.00,,SKC,0.00,VWS V14.01,2013-02-27 05:20:00,
2013-02-26 21:22:00,52.8,31.5,29.98,NNW,337,0.0,4.0,44,0.00,,SKC,0.00,VWS V14.01,2013-02-27 05:22:00,
2013-02-26 21:27:00,52.5,31.2,29.98,NNW,337,0.0,4.0,44,0.00,,SKC,0.00,VWS V14.01,2013-02-27 05:27:00,
2013-02-26 21:30:00,52.4,31.1,29.98,NNW,337,0.0,4.0,44,0.00,,SKC,0.00,VWS V14.01,2013-02-27 05:30:00,
2013-02-26 21:32:00,52.3,30.5,29.98,NNW,331,0.0,4.0,43,0.00,,SKC,0.00,VWS V14.01,2013-02-27 05:32:00,
2013-02-26 21:38:00,52.1,30.3,29.98,NNW,332,0.0,4.0,43,0.00,,SKC,0.00,VWS V14.01,2013-02-27 05:38:00,
2013-02-26 21:40:00,52.1,30.3,29.98,NNW,332,0.0,4.0,43,0.00,,SKC,0.00,VWS V14.01,2013-02-27 05:40:00,
2013-02-26 21:43:00,52.0,30.2,29.98,NNW,332,0.0,2.0,43,0.00,,SKC,0.00,VWS V14.01,2013-02-27 05:43:00,
2013-02-26 21:48:00,51.8,30.0,29.99,NNW,332,0.0,3.0,43,0.00,,SKC,0.00,VWS V14.01,2013-02-27 05:48:00,
2013-02-26 21:50:00,51.8,30.0,29.99,NNW,332,0.0,3.0,43,0.00,,SKC,0.00,VWS V14.01,2013-02-27 05:50:00,
2013-02-26 21:53:00,51.6,30.4,29.99,NNW,332,0.0,0.0,44,0.00,,SKC,0.00,VWS V14.01,2013-02-27 05:53:00,
2013-02-26 21:58:00,51.3,30.7,29.99,NNW,332,0.0,1.0,45,0.00,,SKC,0.00,VWS V14.01,2013-02-27 05:58:00,
2013-02-26 22:00:00,51.2,30.6,29.99,NNW,332,0.0,1.0,45,0.00,,SKC,0.00,VWS V14.01,2013-02-27 06:00:00,
2013-02-26 22:03:00,50.9,30.9,29.99,NNW,332,0.0,1.0,46,0.00,,SKC,0.00,VWS V14.01,2013-02-27 06:03:00,
2013-02-26 22:08:00,50.6,30.1,29.99,SE,145,0.0,5.0,45,0.00,,SKC,0.00,VWS V14.01,2013-02-27 06:08:00,
2013-02-26 22:10:00,50.5,30.0,29.99,SE,145,0.0,5.0,45,0.00,,SKC,0.00,VWS V14.01,2013-02-27 06:10:00,
2013-02-26 22:13:00,50.4,29.9,30.00,SE,145,0.0,1.0,45,0.00,,SKC,0.00,VWS V14.01,2013-02-27 06:13:00,
2013-02-26 22:18:00,49.9,30.5,30.00,ESE,122,0.0,3.0,47,0.00,,SKC,0.00,VWS V14.01,2013-02-27 06:18:00,
2013-02-26 22:20:00,49.8,30.4,30.00,ESE,122,0.0,3.0,47,0.00,,SKC,0.00,VWS V14.01,2013-02-27 06:20:00,
2013-02-26 22:23:00,49.4,31.1,30.00,ESE,122,0.0,0.0,49,0.00,,SKC,0.00,VWS V14.01,2013-02-27 06:23:00,
2013-02-26 22:28:00,48.9,31.6,30.00,ESE,122,0.0,1.0,51,0.00,,SKC,0.00,VWS V14.01,2013-02-27 06:28:00,
2013-02-26 22:30:00,48.8,31.5,30.00,ESE,122,0.0,1.0,51,0.00,,SKC,0.00,VWS V14.01,2013-02-27 06:30:00,
2013-02-26 22:33:00,48.5,31.7,30.00,ESE,122,0.0,0.0,52,0.00,,SKC,0.00,VWS V14.01,2013-02-27 06:33:00,
2013-02-26 22:38:00,47.9,31.6,30.00,ESE,122,0.0,0.0,53,0.00,,SKC,0.00,VWS V14.01,2013-02-27 06:38:00,
2013-02-26 22:40:00,47.9,31.6,30.00,ESE,122,0.0,0.0,53,0.00,,SKC,0.00,VWS V14.01,2013-02-27 06:40:00,
2013-02-26 22:43:00,47.5,32.2,30.00,ESE,122,0.0,0.0,55,0.00,,SKC,0.00,VWS V14.01,2013-02-27 06:43:00,
2013-02-26 22:48:00,47.2,31.9,30.00,ESE,122,0.0,0.0,55,0.00,,SKC,0.00,VWS V14.01,2013-02-27 06:48:00,
2013-02-26 22:50:00,47.1,31.8,30.00,ESE,122,0.0,0.0,55,0.00,,SKC,0.00,VWS V14.01,2013-02-27 06:50:00,
2013-02-26 22:53:00,46.8,32.0,30.00,ESE,122,0.0,0.0,56,0.00,,SKC,0.00,VWS V14.01,2013-02-27 06:53:00,
2013-02-26 22:58:00,46.5,32.1,30.01,ESE,122,0.0,0.0,57,0.00,,SKC,0.00,VWS V14.01,2013-02-27 06:58:00,
2013-02-26 23:00:00,46.5,32.1,30.01,ESE,122,0.0,0.0,57,0.00,,SKC,0.00,VWS V14.01,2013-02-27 07:00:00,
2013-02-26 23:03:00,46.2,31.8,30.01,ESE,122,0.0,0.0,57,0.00,,SKC,0.00,VWS V14.01,2013-02-27 07:03:00,
2013-02-26 23:09:00,46.0,31.6,30.01,ESE,122,0.0,0.0,57,0.00,,SKC,0.00,VWS V14.01,2013-02-27 07:09:00,
2013-02-26 23:10:00,46.0,31.6,30.01,ESE,122,0.0,0.0,57,0.00,,SKC,0.00,VWS V14.01,2013-02-27 07:10:00,
2013-02-26 23:14:00,45.7,31.4,30.01,ESE,122,0.0,0.0,57,0.00,,SKC,0.00,VWS V14.01,2013-02-27 07:14:00,
2013-02-26 23:19:00,45.4,31.1,30.01,ESE,122,0.0,0.0,57,0.00,,SKC,0.00,VWS V14.01,2013-02-27 07:19:00,
2013-02-26 23:20:00,45.4,31.1,30.01,ESE,122,0.0,0.0,57,0.00,,SKC,0.00,VWS V14.01,2013-02-27 07:20:00,
2013-02-26 23:24:00,45.1,31.6,30.01,ESE,122,0.0,0.0,59,0.00,,SKC,0.00,VWS V14.01,2013-02-27 07:24:00,
2013-02-26 23:29:00,45.0,31.5,30.02,ESE,122,0.0,0.0,59,0.00,,SKC,0.00,VWS V14.01,2013-02-27 07:29:00,
2013-02-26 23:30:00,44.9,31.5,30.02,ESE,122,0.0,0.0,59,0.00,,SKC,0.00,VWS V14.01,2013-02-27 07:30:00,
2013-02-26 23:34:00,44.7,31.3,30.02,ESE,122,0.0,0.0,59,0.00,,SKC,0.00,VWS V14.01,2013-02-27 07:34:00,
2013-02-26 23:39:00,44.5,31.5,30.02,ESE,122,0.0,0.0,60,0.00,,SKC,0.00,VWS V14.01,2013-02-27 07:39:00,
2013-02-26 23:40:00,44.5,31.5,30.02,ESE,122,0.0,1.0,60,0.00,,SKC,0.00,VWS V14.01,2013-02-27 07:40:00,
2013-02-26 23:44:00,44.2,30.8,30.02,ESE,122,0.0,1.0,59,0.00,,SKC,0.00,VWS V14.01,2013-02-27 07:44:00,
2013-02-26 23:49:00,44.1,30.3,30.02,ESE,122,0.0,0.0,58,0.00,,SKC,0.00,VWS V14.01,2013-02-27 07:49:00,
2013-02-26 23:50:00,44.1,30.3,30.02,ESE,122,0.0,1.0,58,0.00,,SKC,0.00,VWS V14.01,2013-02-27 07:50:00,
2013-02-26 23:54:00,43.9,30.1,30.02,ESE,122,0.0,0.0,58,0.00,,SKC,0.00,VWS V14.01,2013-02-27 07:54:00,
2013-02-26 23:59:00,43.7,29.9,30.02,ESE,122,0.0,0.0,58,0.00,,SKC,0.00,VWS V14.01,2013-02-27 07:59:00,